Time;durP1;ratioP1;P1;durP2;ratioP2;P2;SDS_P1;SDS_P2;PMS_P1;PMS_P2;Temp;Humidity;BMP_temperature;BMP_pressure;BME280_temperature;BME280_humidity;BME280_pressure;Samples;Min_cycle;Max_cycle;Signal;HPM_P1;HPM_P2
2022/08/16 00:00:11;;;;;;;15.68;6.47;;;;;;;;;;5109343;28;20054;-47
2022/08/16 00:02:37;;;;;;;7.55;3.85;;;;;;;;;;5109066;28;20040;-46
2022/08/16 00:05:04;;;;;;;17.70;4.82;;;;;;;;;;5109509;28;20059;-46
2022/08/16 00:07:29;;;;;;;11.68;5.25;;;;;;;;;;5110115;28;20040;-48
2022/08/16 00:09:55;;;;;;;5.97;4.55;;;;;;;;;;5110182;28;20043;-48
2022/08/16 00:12:20;;;;;;;10.23;5.53;;;;;;;;;;5108898;28;20044;-46
2022/08/16 00:14:46;;;;;;;9.18;6.47;;;;;;;;;;5110409;28;20410;-49
2022/08/16 00:17:11;;;;;;;8.60;6.45;;;;;;;;;;5108220;28;20073;-46
2022/08/16 00:19:36;;;;;;;11.52;5.85;;;;;;;;;;5109259;28;20047;-49
2022/08/16 00:22:02;;;;;;;6.78;4.28;;;;;;;;;;5108254;28;20082;-46
2022/08/16 00:24:28;;;;;;;11.02;5.65;;;;;;;;;;5109573;28;20174;-47
2022/08/16 00:26:53;;;;;;;12.02;4.47;;;;;;;;;;5108968;28;20407;-47
2022/08/16 00:29:19;;;;;;;15.70;5.80;;;;;;;;;;5109694;28;20047;-43
2022/08/16 00:31:46;;;;;;;21.50;6.82;;;;;;;;;;5108583;28;20035;-46
2022/08/16 00:34:11;;;;;;;9.57;6.28;;;;;;;;;;5105632;28;20117;-45
2022/08/16 00:36:36;;;;;;;8.82;5.13;;;;;;;;;;5108617;28;20051;-45
2022/08/16 00:39:02;;;;;;;11.50;6.47;;;;;;;;;;5108133;28;20040;-45
2022/08/16 00:41:28;;;;;;;15.10;4.63;;;;;;;;;;5108172;28;20104;-50
2022/08/16 00:43:53;;;;;;;8.52;5.00;;;;;;;;;;5108554;28;20146;-46
2022/08/16 00:46:21;;;;;;;13.88;5.30;;;;;;;;;;5108241;28;20115;-44
2022/08/16 00:48:47;;;;;;;8.40;4.82;;;;;;;;;;5109727;28;20130;-45
2022/08/16 00:51:13;;;;;;;7.85;5.53;;;;;;;;;;5108134;28;20067;-46
2022/08/16 00:53:39;;;;;;;11.18;6.15;;;;;;;;;;5108677;28;20040;-45
2022/08/16 00:56:07;;;;;;;11.90;6.30;;;;;;;;;;5107264;28;20506;-44
2022/08/16 00:58:34;;;;;;;7.75;6.63;;;;;;;;;;5108610;28;20031;-44
2022/08/16 01:01:00;;;;;;;8.23;5.47;;;;;;;;;;5106991;28;20082;-47
2022/08/16 01:03:26;;;;;;;19.35;6.75;;;;;;;;;;5107049;28;20106;-46
2022/08/16 01:05:51;;;;;;;8.75;5.80;;;;;;;;;;5108100;28;20043;-45
2022/08/16 01:08:19;;;;;;;5.70;5.18;;;;;;;;;;5107514;28;20057;-46
2022/08/16 01:10:44;;;;;;;9.85;6.35;;;;;;;;;;5106123;28;20040;-44
2022/08/16 01:13:10;;;;;;;17.23;6.53;;;;;;;;;;5102067;28;20871;-44
2022/08/16 01:15:37;;;;;;;8.23;5.05;;;;;;;;;;5106117;28;20043;-50
2022/08/16 01:18:05;;;;;;;17.77;5.93;;;;;;;;;;5106741;28;20445;-47
2022/08/16 01:20:33;;;;;;;6.55;5.30;;;;;;;;;;5107646;28;20055;-45
2022/08/16 01:23:02;;;;;;;11.82;4.72;;;;;;;;;;5105448;28;20044;-43
2022/08/16 01:25:29;;;;;;;9.10;6.00;;;;;;;;;;5107099;28;20500;-46
2022/08/16 01:27:57;;;;;;;10.50;6.60;;;;;;;;;;5106113;28;20114;-44
2022/08/16 01:30:24;;;;;;;9.27;6.00;;;;;;;;;;5107209;28;20051;-46
2022/08/16 01:32:50;;;;;;;11.27;6.95;;;;;;;;;;5103515;28;20078;-43
2022/08/16 01:35:21;;;;;;;11.63;6.00;;;;;;;;;;5103917;28;20059;-44
2022/08/16 01:37:52;;;;;;;16.45;6.07;;;;;;;;;;5106944;28;20541;-43
2022/08/16 01:40:19;;;;;;;11.10;5.75;;;;;;;;;;5107263;28;20077;-48
2022/08/16 01:42:45;;;;;;;11.65;6.30;;;;;;;;;;5106271;28;20632;-43
2022/08/16 01:45:11;;;;;;;10.10;6.40;;;;;;;;;;5105940;28;20113;-46
2022/08/16 01:47:37;;;;;;;22.23;5.93;;;;;;;;;;5107293;28;20071;-43
2022/08/16 01:50:03;;;;;;;9.25;4.85;;;;;;;;;;5107399;28;20104;-43
2022/08/16 01:52:29;;;;;;;6.55;4.80;;;;;;;;;;5107137;28;20051;-45
2022/08/16 01:54:54;;;;;;;7.15;3.92;;;;;;;;;;5107726;28;20038;-42
2022/08/16 01:57:20;;;;;;;13.18;4.07;;;;;;;;;;5107873;28;20458;-49
2022/08/16 01:59:45;;;;;;;5.45;4.18;;;;;;;;;;5107055;28;20075;-48
2022/08/16 02:02:10;;;;;;;10.48;4.70;;;;;;;;;;5107935;28;20036;-43
2022/08/16 02:04:36;;;;;;;14.07;6.20;;;;;;;;;;5106382;28;20082;-44
2022/08/16 02:07:07;;;;;;;6.22;4.93;;;;;;;;;;5107009;28;20040;-43
2022/08/16 02:09:34;;;;;;;7.40;3.90;;;;;;;;;;5107666;28;20048;-47
2022/08/16 02:11:59;;;;;;;16.63;5.55;;;;;;;;;;5106392;28;20066;-46
2022/08/16 02:14:26;;;;;;;14.88;6.40;;;;;;;;;;5105685;28;20445;-43
2022/08/16 02:16:51;;;;;;;7.80;5.45;;;;;;;;;;5106493;28;20066;-43
2022/08/16 02:19:18;;;;;;;6.38;4.32;;;;;;;;;;5106786;28;20316;-43
2022/08/16 02:21:48;;;;;;;11.20;4.45;;;;;;;;;;5108221;28;20391;-48
2022/08/16 02:24:14;;;;;;;5.03;3.95;;;;;;;;;;5106323;28;20071;-44
2022/08/16 02:26:39;;;;;;;6.55;4.63;;;;;;;;;;5106292;28;20079;-44
2022/08/16 02:29:04;;;;;;;4.82;3.90;;;;;;;;;;5105058;28;20051;-44
2022/08/16 02:31:30;;;;;;;5.35;4.40;;;;;;;;;;5105830;28;20414;-47
2022/08/16 02:33:55;;;;;;;5.28;4.03;;;;;;;;;;5105300;28;20046;-46
2022/08/16 02:36:20;;;;;;;3.83;2.90;;;;;;;;;;5103384;28;20039;-48
2022/08/16 02:38:46;;;;;;;7.25;4.47;;;;;;;;;;5106598;28;20042;-47
2022/08/16 02:41:12;;;;;;;6.28;5.10;;;;;;;;;;5103287;28;20043;-47
2022/08/16 02:43:38;;;;;;;9.10;5.60;;;;;;;;;;5106160;28;20051;-46
2022/08/16 02:46:03;;;;;;;8.02;4.95;;;;;;;;;;5104779;28;20088;-44
2022/08/16 02:48:29;;;;;;;9.02;5.40;;;;;;;;;;5106969;28;20040;-48
2022/08/16 02:50:56;;;;;;;9.68;6.50;;;;;;;;;;5107270;28;20058;-45
2022/08/16 02:53:22;;;;;;;7.72;5.97;;;;;;;;;;5106662;28;20057;-45
2022/08/16 02:55:48;;;;;;;13.45;5.03;;;;;;;;;;5105868;28;20043;-50
2022/08/16 02:58:13;;;;;;;13.05;5.47;;;;;;;;;;5106891;28;20078;-48
2022/08/16 03:00:38;;;;;;;4.65;3.85;;;;;;;;;;5106494;28;20063;-45
2022/08/16 03:03:04;;;;;;;12.35;5.18;;;;;;;;;;5106553;28;20079;-46
2022/08/16 03:05:29;;;;;;;9.60;4.88;;;;;;;;;;5104778;28;20050;-44
2022/08/16 03:07:55;;;;;;;7.88;4.65;;;;;;;;;;5104386;28;20142;-46
2022/08/16 03:10:20;;;;;;;5.95;3.60;;;;;;;;;;5105662;28;20100;-43
2022/08/16 03:12:48;;;;;;;7.10;3.88;;;;;;;;;;5106761;28;20067;-41
2022/08/16 03:15:13;;;;;;;13.05;4.30;;;;;;;;;;5105268;28;20123;-42
2022/08/16 03:17:39;;;;;;;8.27;4.43;;;;;;;;;;5104282;28;20569;-44
2022/08/16 03:20:06;;;;;;;14.60;5.90;;;;;;;;;;5105521;28;20044;-43
2022/08/16 03:22:31;;;;;;;8.73;5.40;;;;;;;;;;5105353;28;20089;-47
2022/08/16 03:24:58;;;;;;;10.70;4.43;;;;;;;;;;5107306;28;20067;-44
2022/08/16 03:27:23;;;;;;;5.90;4.38;;;;;;;;;;5107346;28;20093;-43
2022/08/16 03:29:49;;;;;;;8.35;4.65;;;;;;;;;;5107206;28;20529;-41
2022/08/16 03:32:14;;;;;;;14.35;6.10;;;;;;;;;;5105519;28;20112;-42
2022/08/16 03:34:39;;;;;;;10.50;5.40;;;;;;;;;;5107056;28;20043;-43
2022/08/16 03:37:05;;;;;;;18.63;5.03;;;;;;;;;;5106894;28;20051;-42
2022/08/16 03:39:30;;;;;;;10.68;4.70;;;;;;;;;;5104644;28;20506;-46
2022/08/16 03:41:55;;;;;;;4.88;3.42;;;;;;;;;;5105625;28;20491;-42
2022/08/16 03:44:20;;;;;;;6.90;4.28;;;;;;;;;;5105636;28;20055;-42
2022/08/16 03:46:46;;;;;;;4.15;3.10;;;;;;;;;;5104360;28;20043;-44
2022/08/16 03:49:12;;;;;;;11.23;3.97;;;;;;;;;;5106441;28;20051;-43
2022/08/16 03:51:38;;;;;;;9.77;5.15;;;;;;;;;;5103250;28;20051;-42
2022/08/16 03:54:04;;;;;;;12.55;4.20;;;;;;;;;;5105065;28;20043;-41
2022/08/16 03:56:29;;;;;;;4.88;3.47;;;;;;;;;;5106237;28;20040;-45
2022/08/16 03:58:55;;;;;;;10.25;3.90;;;;;;;;;;5108896;28;20342;-42
2022/08/16 04:01:21;;;;;;;9.60;4.78;;;;;;;;;;5108667;28;20082;-42
2022/08/16 04:03:47;;;;;;;13.52;4.82;;;;;;;;;;5109449;28;20047;-41
2022/08/16 04:06:12;;;;;;;6.18;4.45;;;;;;;;;;5106946;28;20040;-46
2022/08/16 04:08:37;;;;;;;7.57;4.75;;;;;;;;;;5108256;28;20495;-44
2022/08/16 04:11:03;;;;;;;7.13;4.57;;;;;;;;;;5109669;28;20491;-42
2022/08/16 04:13:29;;;;;;;8.68;3.42;;;;;;;;;;5109789;28;20075;-42
2022/08/16 04:15:58;;;;;;;18.17;5.45;;;;;;;;;;5109151;28;20097;-42
2022/08/16 04:18:23;;;;;;;11.68;5.50;;;;;;;;;;5107599;28;20047;-44
2022/08/16 04:20:48;;;;;;;5.25;4.07;;;;;;;;;;5105766;28;20048;-43
2022/08/16 04:23:14;;;;;;;5.88;4.00;;;;;;;;;;5107359;28;20114;-45
2022/08/16 04:25:40;;;;;;;17.08;5.65;;;;;;;;;;5108671;28;20150;-44
2022/08/16 04:28:05;;;;;;;10.80;4.82;;;;;;;;;;5107755;28;20557;-42
2022/08/16 04:30:31;;;;;;;8.30;5.00;;;;;;;;;;5107884;28;20146;-42
2022/08/16 04:32:56;;;;;;;11.70;3.88;;;;;;;;;;5108479;28;20089;-43
2022/08/16 04:35:22;;;;;;;3.72;2.70;;;;;;;;;;5108742;28;20139;-44
2022/08/16 04:37:48;;;;;;;7.72;3.95;;;;;;;;;;5107879;28;20044;-43
2022/08/16 04:40:14;;;;;;;5.32;3.80;;;;;;;;;;5105774;28;20109;-43
2022/08/16 04:42:41;;;;;;;9.27;4.57;;;;;;;;;;5104088;28;20083;-43
2022/08/16 04:45:07;;;;;;;9.38;4.28;;;;;;;;;;5107528;27;20078;-44
2022/08/16 04:47:33;;;;;;;5.38;3.33;;;;;;;;;;5106906;28;20040;-42
2022/08/16 04:50:06;;;;;;;8.15;4.78;;;;;;;;;;5108293;28;20039;-43
2022/08/16 04:52:32;;;;;;;6.43;3.58;;;;;;;;;;5105560;28;20055;-46
2022/08/16 04:54:57;;;;;;;11.80;5.30;;;;;;;;;;5108409;28;20051;-43
2022/08/16 04:57:22;;;;;;;10.52;3.47;;;;;;;;;;5108463;28;20035;-43
2022/08/16 04:59:48;;;;;;;4.95;3.20;;;;;;;;;;5104974;28;20035;-42
2022/08/16 05:02:13;;;;;;;6.35;3.85;;;;;;;;;;5106787;28;20051;-44
2022/08/16 05:04:38;;;;;;;9.52;4.50;;;;;;;;;;5106678;28;20128;-44
2022/08/16 05:07:04;;;;;;;9.50;4.03;;;;;;;;;;5107297;28;20551;-43
2022/08/16 05:09:29;;;;;;;10.50;6.22;;;;;;;;;;5105780;28;20429;-42
2022/08/16 05:11:54;;;;;;;8.45;5.47;;;;;;;;;;5107226;28;20083;-45
2022/08/16 05:14:20;;;;;;;11.77;5.95;;;;;;;;;;5108127;28;20056;-43
2022/08/16 05:16:45;;;;;;;17.15;4.75;;;;;;;;;;5106370;28;20138;-44
2022/08/16 05:19:10;;;;;;;7.53;5.35;;;;;;;;;;5106250;28;20039;-45
2022/08/16 05:21:37;;;;;;;42.88;35.80;;;;;;;;;;5107494;28;20038;-43
2022/08/16 05:24:02;;;;;;;16.73;13.57;;;;;;;;;;5106876;28;20046;-43
2022/08/16 05:26:29;;;;;;;13.40;5.75;;;;;;;;;;5108499;28;20047;-43
2022/08/16 05:28:56;;;;;;;10.10;3.47;;;;;;;;;;5108097;28;20174;-45
2022/08/16 05:31:22;;;;;;;9.38;3.90;;;;;;;;;;5107801;28;20079;-42
2022/08/16 05:33:47;;;;;;;20.63;5.97;;;;;;;;;;5107459;28;20047;-45
2022/08/16 05:36:13;;;;;;;16.60;3.50;;;;;;;;;;5106352;28;20056;-48
2022/08/16 05:38:38;;;;;;;6.93;4.40;;;;;;;;;;5107224;28;20067;-45
2022/08/16 05:41:03;;;;;;;13.90;4.68;;;;;;;;;;5107053;28;20070;-44
2022/08/16 05:43:29;;;;;;;5.57;3.92;;;;;;;;;;5107535;28;20113;-47
2022/08/16 05:45:54;;;;;;;9.52;3.53;;;;;;;;;;5106792;28;20510;-46
2022/08/16 05:48:20;;;;;;;10.40;5.85;;;;;;;;;;5107123;28;20577;-43
2022/08/16 05:50:45;;;;;;;4.68;4.20;;;;;;;;;;5105499;28;20039;-42
2022/08/16 05:53:10;;;;;;;6.85;4.57;;;;;;;;;;5083524;28;20035;-45
2022/08/16 05:55:36;;;;;;;10.70;5.80;;;;;;;;;;5107759;28;20027;-43
2022/08/16 05:58:01;;;;;;;11.27;5.90;;;;;;;;;;5106120;28;20035;-47
2022/08/16 06:00:26;;;;;;;13.40;4.22;;;;;;;;;;5106672;28;20115;-45
2022/08/16 06:02:52;;;;;;;17.95;5.70;;;;;;;;;;5107044;28;20502;-45
2022/08/16 06:05:17;;;;;;;11.95;5.45;;;;;;;;;;5107993;28;20047;-47
2022/08/16 06:07:42;;;;;;;15.30;6.50;;;;;;;;;;5105277;28;20048;-46
2022/08/16 06:10:08;;;;;;;8.23;4.85;;;;;;;;;;5103747;28;20474;-45
2022/08/16 06:12:33;;;;;;;8.63;5.43;;;;;;;;;;5106290;28;20051;-46
2022/08/16 06:15:01;;;;;;;7.78;4.40;;;;;;;;;;5105811;28;20066;-49
2022/08/16 06:17:27;;;;;;;8.88;5.18;;;;;;;;;;5105941;28;20453;-48
2022/08/16 06:19:53;;;;;;;9.68;4.97;;;;;;;;;;5106959;28;20047;-46
2022/08/16 06:22:18;;;;;;;20.77;5.85;;;;;;;;;;5104704;28;20059;-45
2022/08/16 06:24:43;;;;;;;10.57;5.05;;;;;;;;;;5107217;28;20059;-46
2022/08/16 06:27:09;;;;;;;10.20;4.43;;;;;;;;;;5106052;28;20061;-46
2022/08/16 06:29:34;;;;;;;15.82;4.50;;;;;;;;;;5086700;28;20043;-46
2022/08/16 06:32:01;;;;;;;14.88;5.57;;;;;;;;;;5107878;28;20074;-45
2022/08/16 06:34:26;;;;;;;15.50;5.20;;;;;;;;;;5107915;28;20036;-46
2022/08/16 06:36:51;;;;;;;15.07;5.05;;;;;;;;;;5107373;28;20047;-47
2022/08/16 06:39:17;;;;;;;6.50;4.50;;;;;;;;;;5106093;28;20043;-44
2022/08/16 06:41:42;;;;;;;6.68;3.80;;;;;;;;;;5107838;28;20055;-43
2022/08/16 06:44:08;;;;;;;8.60;3.78;;;;;;;;;;5107635;28;20036;-44
2022/08/16 06:46:36;;;;;;;6.93;3.95;;;;;;;;;;5106970;28;20044;-45
2022/08/16 06:49:03;;;;;;;14.38;5.82;;;;;;;;;;5107149;28;20050;-45
2022/08/16 06:51:28;;;;;;;7.22;4.03;;;;;;;;;;5106807;28;20518;-44
2022/08/16 06:53:53;;;;;;;10.15;5.38;;;;;;;;;;5106148;28;20043;-44
2022/08/16 06:56:19;;;;;;;9.68;5.00;;;;;;;;;;5106430;28;20070;-45
2022/08/16 06:58:44;;;;;;;9.05;6.85;;;;;;;;;;5106832;28;20063;-47
2022/08/16 07:01:09;;;;;;;9.00;4.75;;;;;;;;;;5104238;28;20631;-50
2022/08/16 07:03:35;;;;;;;10.70;5.30;;;;;;;;;;5106392;28;20052;-47
2022/08/16 07:06:00;;;;;;;8.40;4.25;;;;;;;;;;5105623;28;20035;-46
2022/08/16 07:08:26;;;;;;;13.80;4.97;;;;;;;;;;5105706;28;20116;-50
2022/08/16 07:10:52;;;;;;;6.40;5.18;;;;;;;;;;5106441;28;20162;-46
2022/08/16 07:13:18;;;;;;;24.50;5.70;;;;;;;;;;5106433;28;20044;-45
2022/08/16 07:15:43;;;;;;;8.98;4.57;;;;;;;;;;5104814;28;20499;-45
2022/08/16 07:18:10;;;;;;;10.02;5.35;;;;;;;;;;5105268;28;20054;-49
2022/08/16 07:20:36;;;;;;;32.75;9.55;;;;;;;;;;5106420;28;20043;-45
2022/08/16 07:23:03;;;;;;;12.55;5.28;;;;;;;;;;5104183;28;20047;-48
2022/08/16 07:25:28;;;;;;;63.90;11.68;;;;;;;;;;5106635;28;20128;-53
2022/08/16 07:27:54;;;;;;;7.65;4.50;;;;;;;;;;5105013;28;20482;-52
2022/08/16 07:30:19;;;;;;;4.35;3.45;;;;;;;;;;5105040;28;20047;-51
2022/08/16 07:32:45;;;;;;;7.85;4.05;;;;;;;;;;5108381;28;20063;-51
2022/08/16 07:35:10;;;;;;;12.80;3.88;;;;;;;;;;5090587;28;20082;-52
2022/08/16 07:37:35;;;;;;;20.65;3.47;;;;;;;;;;5109748;28;20044;-50
2022/08/16 07:40:01;;;;;;;13.15;4.80;;;;;;;;;;5109191;28;20063;-52
2022/08/16 07:42:26;;;;;;;9.45;4.15;;;;;;;;;;5108203;28;20138;-53
2022/08/16 07:44:51;;;;;;;29.23;7.38;;;;;;;;;;5109250;28;20086;-52
2022/08/16 07:47:17;;;;;;;7.50;4.35;;;;;;;;;;5108788;28;20082;-52
2022/08/16 07:49:42;;;;;;;15.65;7.65;;;;;;;;;;5108727;28;20042;-52
2022/08/16 07:52:07;;;;;;;13.98;5.50;;;;;;;;;;5110097;28;20055;-50
2022/08/16 07:54:33;;;;;;;10.55;4.00;;;;;;;;;;5107434;28;20056;-47
2022/08/16 07:56:58;;;;;;;3.03;2.08;;;;;;;;;;5109777;28;20047;-52
2022/08/16 07:59:24;;;;;;;8.77;5.35;;;;;;;;;;5109506;28;20040;-54
2022/08/16 08:01:53;;;;;;;6.93;4.05;;;;;;;;;;5107843;28;20060;-52
2022/08/16 08:04:18;;;;;;;13.95;5.00;;;;;;;;;;5107612;28;20040;-53
2022/08/16 08:06:44;;;;;;;6.20;4.20;;;;;;;;;;5107061;28;20054;-52
2022/08/16 08:09:09;;;;;;;6.60;3.60;;;;;;;;;;5108649;28;20047;-54
2022/08/16 08:11:34;;;;;;;8.73;5.13;;;;;;;;;;5108940;28;20059;-55
2022/08/16 08:14:00;;;;;;;16.60;4.45;;;;;;;;;;5108653;28;20499;-52
2022/08/16 08:16:26;;;;;;;5.60;4.00;;;;;;;;;;5109457;28;20552;-55
2022/08/16 08:18:53;;;;;;;7.72;4.63;;;;;;;;;;5108919;28;20097;-54
2022/08/16 08:21:20;;;;;;;10.20;4.57;;;;;;;;;;5108821;27;20051;-53
2022/08/16 08:23:46;;;;;;;10.32;4.88;;;;;;;;;;5108782;28;20579;-49
2022/08/16 08:26:11;;;;;;;10.98;4.53;;;;;;;;;;5108511;28;20040;-51
2022/08/16 08:28:37;;;;;;;9.18;4.68;;;;;;;;;;5108751;28;20043;-49
2022/08/16 08:31:03;;;;;;;18.33;4.57;;;;;;;;;;5105066;28;20474;-55
2022/08/16 08:33:30;;;;;;;8.35;3.20;;;;;;;;;;5107984;28;20232;-50
2022/08/16 08:35:56;;;;;;;7.93;3.13;;;;;;;;;;5109167;28;20040;-52
2022/08/16 08:38:22;;;;;;;12.98;4.88;;;;;;;;;;5108956;28;20081;-51
2022/08/16 08:40:47;;;;;;;5.70;2.65;;;;;;;;;;5108580;28;20039;-55
2022/08/16 08:43:12;;;;;;;5.97;3.22;;;;;;;;;;5106918;28;20041;-51
2022/08/16 08:45:39;;;;;;;7.47;4.28;;;;;;;;;;5106581;28;20076;-44
2022/08/16 08:48:04;;;;;;;3.70;2.83;;;;;;;;;;5107513;28;20051;-50
2022/08/16 08:50:30;;;;;;;17.10;4.60;;;;;;;;;;5109125;28;20360;-50
2022/08/16 08:52:55;;;;;;;6.03;4.25;;;;;;;;;;5108135;28;20046;-50
2022/08/16 08:55:21;;;;;;;8.30;3.85;;;;;;;;;;5105778;28;20088;-48
2022/08/16 08:57:47;;;;;;;8.70;4.20;;;;;;;;;;5107668;28;20038;-51
2022/08/16 09:00:13;;;;;;;14.50;5.72;;;;;;;;;;5106659;28;20167;-48
2022/08/16 09:02:39;;;;;;;5.40;3.72;;;;;;;;;;5107344;28;20093;-54
2022/08/16 09:05:04;;;;;;;14.40;5.20;;;;;;;;;;5107642;28;20382;-49
2022/08/16 09:07:30;;;;;;;7.47;5.30;;;;;;;;;;5107112;28;20063;-56
2022/08/16 09:09:55;;;;;;;7.50;4.63;;;;;;;;;;5105868;28;20028;-68
2022/08/16 09:12:21;;;;;;;7.32;3.72;;;;;;;;;;5107693;27;20076;-58
2022/08/16 09:14:46;;;;;;;6.65;3.00;;;;;;;;;;5106703;28;20044;-58
2022/08/16 09:17:11;;;;;;;6.60;3.88;;;;;;;;;;5107800;28;20073;-54
2022/08/16 09:19:38;;;;;;;14.57;4.43;;;;;;;;;;5105831;28;20071;-58
2022/08/16 09:22:04;;;;;;;7.72;4.57;;;;;;;;;;5106658;28;20417;-60
2022/08/16 09:24:30;;;;;;;10.98;2.22;;;;;;;;;;5106053;28;20050;-60
2022/08/16 09:26:55;;;;;;;22.17;5.00;;;;;;;;;;5107469;28;20043;-60
2022/08/16 09:29:21;;;;;;;9.45;3.10;;;;;;;;;;5106344;28;20552;-59
2022/08/16 09:31:46;;;;;;;5.40;3.35;;;;;;;;;;5106639;28;20084;-59
2022/08/16 09:34:11;;;;;;;12.77;4.53;;;;;;;;;;5108361;28;20387;-59
2022/08/16 09:36:38;;;;;;;11.68;4.57;;;;;;;;;;5107982;28;20123;-58
2022/08/16 09:39:03;;;;;;;7.82;3.55;;;;;;;;;;5106768;28;20051;-59
2022/08/16 09:41:30;;;;;;;15.35;4.53;;;;;;;;;;5106872;28;20040;-59
2022/08/16 09:43:56;;;;;;;7.95;3.45;;;;;;;;;;5102102;28;20566;-58
2022/08/16 09:46:22;;;;;;;13.88;4.28;;;;;;;;;;5106016;28;20136;-59
2022/08/16 09:48:48;;;;;;;6.70;2.53;;;;;;;;;;5107345;28;20525;-59
2022/08/16 09:51:14;;;;;;;3.03;2.10;;;;;;;;;;5107354;28;20072;-60
2022/08/16 09:53:39;;;;;;;8.18;3.33;;;;;;;;;;5106569;27;20491;-64
2022/08/16 09:56:13;;;;;;;3.05;2.00;;;;;;;;;;5110418;27;20089;-60
2022/08/16 09:58:38;;;;;;;3.05;1.70;;;;;;;;;;5103876;28;20043;-59
2022/08/16 10:01:04;;;;;;;5.30;3.33;;;;;;;;;;5098314;27;20414;-55
2022/08/16 10:03:29;;;;;;;14.07;5.13;;;;;;;;;;5106657;28;20180;-56
2022/08/16 10:05:55;;;;;;;9.23;3.67;;;;;;;;;;5105473;27;20410;-55
2022/08/16 10:08:20;;;;;;;5.20;3.33;;;;;;;;;;5107000;28;20669;-55
2022/08/16 10:13:10;;;;;;;7.60;2.75;;;;;;;;;;5107367;27;20091;-57
2022/08/16 10:13:33;;;;;;;8.40;4.13;;;;;;;;;;5105170;28;20032;-57
2022/08/16 10:15:58;;;;;;;5.28;2.40;;;;;;;;;;5104420;28;20088;-57
2022/08/16 10:18:28;;;;;;;8.43;3.53;;;;;;;;;;5105551;28;20761;-56
2022/08/16 10:20:54;;;;;;;15.65;3.72;;;;;;;;;;5104712;28;20047;-57
2022/08/16 10:23:20;;;;;;;8.30;3.08;;;;;;;;;;5107338;28;20044;-57
2022/08/16 10:25:46;;;;;;;8.25;2.47;;;;;;;;;;5088201;28;20094;-57
2022/08/16 10:28:11;;;;;;;6.35;2.22;;;;;;;;;;5106978;28;20042;-56
2022/08/16 10:30:37;;;;;;;14.63;3.13;;;;;;;;;;5106622;28;20097;-56
2022/08/16 10:33:03;;;;;;;3.28;2.05;;;;;;;;;;5105936;28;20036;-55
2022/08/16 10:35:30;;;;;;;4.55;2.25;;;;;;;;;;5106734;28;20088;-52
2022/08/16 10:37:55;;;;;;;7.63;2.35;;;;;;;;;;5103736;28;20484;-56
2022/08/16 10:40:21;;;;;;;4.20;2.50;;;;;;;;;;5105510;28;20069;-56
2022/08/16 10:42:48;;;;;;;6.70;3.08;;;;;;;;;;5106209;28;20122;-56
2022/08/16 10:45:13;;;;;;;7.28;2.83;;;;;;;;;;5104195;28;20533;-56
2022/08/16 10:47:39;;;;;;;4.15;1.75;;;;;;;;;;5105589;28;20068;-57
2022/08/16 10:50:05;;;;;;;6.75;4.03;;;;;;;;;;5104710;28;20524;-55
2022/08/16 10:52:32;;;;;;;4.75;2.20;;;;;;;;;;5107002;28;20043;-56
2022/08/16 10:54:58;;;;;;;9.48;2.85;;;;;;;;;;5106744;28;20044;-56
2022/08/16 10:57:24;;;;;;;16.35;3.72;;;;;;;;;;5106684;28;20058;-55
2022/08/16 10:59:52;;;;;;;5.03;2.50;;;;;;;;;;5104490;28;20126;-55
2022/08/16 11:02:18;;;;;;;6.65;2.25;;;;;;;;;;5106195;28;20109;-56
2022/08/16 11:04:44;;;;;;;16.23;3.58;;;;;;;;;;5106229;28;20075;-58
2022/08/16 11:07:09;;;;;;;7.03;3.28;;;;;;;;;;5106601;28;20090;-57
2022/08/16 11:09:35;;;;;;;3.92;1.80;;;;;;;;;;5108479;28;20047;-58
2022/08/16 11:12:00;;;;;;;9.13;3.65;;;;;;;;;;5109520;28;20039;-58
2022/08/16 11:14:25;;;;;;;6.80;3.30;;;;;;;;;;5109961;28;20051;-56
2022/08/16 11:16:51;;;;;;;10.88;2.63;;;;;;;;;;5108400;28;20119;-54
2022/08/16 11:19:17;;;;;;;6.78;3.38;;;;;;;;;;5110729;28;20048;-57
2022/08/16 11:21:43;;;;;;;31.65;5.82;;;;;;;;;;5109273;28;20078;-56
2022/08/16 11:24:08;;;;;;;6.38;2.63;;;;;;;;;;5080135;28;20075;-57
2022/08/16 11:26:34;;;;;;;6.43;2.90;;;;;;;;;;5108761;28;20039;-55
2022/08/16 11:28:59;;;;;;;6.60;2.38;;;;;;;;;;5110376;28;20100;-55
2022/08/16 11:31:24;;;;;;;4.78;2.50;;;;;;;;;;5110755;28;20111;-57
2022/08/16 11:33:50;;;;;;;4.70;2.78;;;;;;;;;;5110400;28;20040;-55
2022/08/16 11:36:15;;;;;;;5.85;2.78;;;;;;;;;;5109229;28;20031;-56
2022/08/16 11:38:41;;;;;;;5.15;2.22;;;;;;;;;;5107574;28;20051;-58
2022/08/16 11:41:06;;;;;;;4.53;2.30;;;;;;;;;;5107413;28;20051;-57
2022/08/16 11:43:33;;;;;;;9.55;2.15;;;;;;;;;;5109876;28;20108;-57
2022/08/16 11:46:00;;;;;;;6.28;2.13;;;;;;;;;;5107833;28;20047;-57
2022/08/16 11:48:26;;;;;;;3.25;1.10;;;;;;;;;;5106648;28;20044;-57
2022/08/16 11:50:52;;;;;;;3.42;1.35;;;;;;;;;;5108805;28;20102;-58
2022/08/16 11:53:19;;;;;;;10.82;1.58;;;;;;;;;;5109209;28;20028;-57
2022/08/16 11:55:45;;;;;;;5.75;2.20;;;;;;;;;;5109467;28;20066;-58
2022/08/16 11:58:10;;;;;;;5.45;3.45;;;;;;;;;;5108503;28;20036;-58
2022/08/16 12:00:37;;;;;;;4.53;2.50;;;;;;;;;;5110407;28;20039;-58
2022/08/16 12:03:02;;;;;;;3.35;2.25;;;;;;;;;;5109053;28;20050;-58
2022/08/16 12:05:28;;;;;;;6.82;2.53;;;;;;;;;;5108459;28;20044;-56
2022/08/16 12:07:54;;;;;;;2.63;2.03;;;;;;;;;;5108425;28;20066;-57
2022/08/16 12:10:19;;;;;;;3.85;1.65;;;;;;;;;;5106986;28;20589;-58
2022/08/16 12:12:45;;;;;;;11.45;3.15;;;;;;;;;;5108905;28;20063;-57
2022/08/16 12:15:12;;;;;;;4.57;2.47;;;;;;;;;;5109874;28;20036;-57
2022/08/16 12:17:37;;;;;;;7.30;2.42;;;;;;;;;;5108159;28;20054;-57
2022/08/16 12:20:04;;;;;;;6.15;2.63;;;;;;;;;;5108132;28;20051;-57
2022/08/16 12:22:30;;;;;;;2.88;1.30;;;;;;;;;;5109281;28;20130;-57
2022/08/16 12:24:55;;;;;;;10.95;2.72;;;;;;;;;;5107664;28;20165;-59
2022/08/16 12:27:21;;;;;;;11.20;2.15;;;;;;;;;;5106750;28;20122;-53
2022/08/16 12:29:46;;;;;;;5.57;2.85;;;;;;;;;;5108873;28;20427;-58
2022/08/16 12:32:12;;;;;;;10.60;3.17;;;;;;;;;;5106740;28;20581;-59
2022/08/16 12:34:38;;;;;;;5.20;2.55;;;;;;;;;;5109122;28;20527;-58
2022/08/16 12:37:04;;;;;;;4.45;2.13;;;;;;;;;;5108823;28;20042;-59
2022/08/16 12:39:30;;;;;;;8.00;2.65;;;;;;;;;;5108515;28;20039;-59
2022/08/16 12:41:55;;;;;;;9.52;2.28;;;;;;;;;;5108438;28;20529;-59
2022/08/16 12:44:21;;;;;;;5.38;3.45;;;;;;;;;;5105573;28;20475;-60
2022/08/16 12:48:56;;;;;;;6.82;2.90;;;;;;;;;;5108516;27;20077;-60
2022/08/16 12:49:31;;;;;;;6.13;2.03;;;;;;;;;;5105843;28;20044;-60
2022/08/16 12:51:57;;;;;;;3.13;1.90;;;;;;;;;;5107455;28;20494;-59
2022/08/16 12:54:22;;;;;;;7.88;2.55;;;;;;;;;;5108123;28;20047;-59
2022/08/16 12:56:48;;;;;;;3.85;1.80;;;;;;;;;;5108545;28;20043;-59
2022/08/16 12:59:14;;;;;;;5.22;2.75;;;;;;;;;;5108384;28;20542;-59
2022/08/16 13:01:40;;;;;;;4.32;2.10;;;;;;;;;;5108459;28;20044;-59
2022/08/16 13:04:07;;;;;;;6.78;1.52;;;;;;;;;;5107565;28;20067;-60
2022/08/16 13:06:33;;;;;;;4.88;2.58;;;;;;;;;;5104873;28;20081;-59
2022/08/16 13:09:01;;;;;;;6.07;2.42;;;;;;;;;;5108280;28;20502;-59
2022/08/16 13:11:34;;;;;;;5.28;1.85;;;;;;;;;;5107969;27;20166;-59
2022/08/16 13:14:00;;;;;;;4.10;2.67;;;;;;;;;;5108572;28;20052;-59
2022/08/16 13:16:25;;;;;;;10.50;2.55;;;;;;;;;;5104079;28;20055;-59
2022/08/16 13:18:50;;;;;;;3.70;1.65;;;;;;;;;;5106753;28;20043;-59
2022/08/16 13:21:15;;;;;;;5.93;2.10;;;;;;;;;;5107309;27;20104;-60
2022/08/16 13:23:41;;;;;;;4.93;1.80;;;;;;;;;;5107298;28;20059;-59
2022/08/16 13:26:06;;;;;;;2.38;1.15;;;;;;;;;;5108051;28;20904;-59
2022/08/16 13:28:32;;;;;;;4.00;3.03;;;;;;;;;;5104592;28;20047;-59
2022/08/16 13:30:57;;;;;;;15.57;3.45;;;;;;;;;;5106301;27;20040;-60
2022/08/16 13:33:24;;;;;;;3.50;2.40;;;;;;;;;;5109838;27;20044;-59
2022/08/16 13:35:51;;;;;;;8.75;1.90;;;;;;;;;;5111309;27;20039;-59
2022/08/16 13:38:17;;;;;;;4.60;1.65;;;;;;;;;;5107922;27;20217;-59
2022/08/16 13:40:42;;;;;;;5.93;2.28;;;;;;;;;;5105169;27;20156;-59
2022/08/16 13:43:07;;;;;;;4.75;1.70;;;;;;;;;;5110311;27;20101;-58
2022/08/16 13:45:34;;;;;;;2.80;1.67;;;;;;;;;;5109513;27;20039;-59
2022/08/16 13:47:59;;;;;;;2.03;0.93;;;;;;;;;;5109729;27;20112;-58
2022/08/16 13:50:26;;;;;;;5.28;2.53;;;;;;;;;;5108023;27;20471;-59
2022/08/16 13:52:52;;;;;;;4.90;1.08;;;;;;;;;;5109545;27;20061;-59
2022/08/16 13:55:17;;;;;;;14.60;2.88;;;;;;;;;;5108867;27;20047;-60
2022/08/16 13:57:42;;;;;;;6.03;3.03;;;;;;;;;;5109038;27;20039;-59
2022/08/16 14:00:08;;;;;;;7.63;2.30;;;;;;;;;;5110121;27;20039;-59
2022/08/16 14:02:34;;;;;;;5.63;2.00;;;;;;;;;;5109126;27;20059;-59
2022/08/16 14:04:59;;;;;;;1.33;1.00;;;;;;;;;;5107092;27;20112;-59
2022/08/16 14:07:25;;;;;;;3.10;1.58;;;;;;;;;;5106995;27;20082;-60
2022/08/16 14:09:51;;;;;;;3.63;2.10;;;;;;;;;;5107725;28;20031;-59
2022/08/16 14:12:20;;;;;;;2.17;1.58;;;;;;;;;;5106119;28;20043;-59
2022/08/16 14:14:47;;;;;;;4.40;2.83;;;;;;;;;;5106727;28;20040;-60
2022/08/16 14:17:13;;;;;;;5.43;2.20;;;;;;;;;;5106770;28;20521;-60
2022/08/16 14:19:38;;;;;;;3.15;2.25;;;;;;;;;;5106079;28;20554;-60
2022/08/16 14:22:04;;;;;;;9.13;1.75;;;;;;;;;;5105726;28;20426;-59
2022/08/16 14:24:29;;;;;;;11.57;3.55;;;;;;;;;;5105610;28;20048;-59
2022/08/16 14:26:54;;;;;;;3.42;2.25;;;;;;;;;;5106532;27;20065;-60
2022/08/16 14:29:20;;;;;;;11.40;4.63;;;;;;;;;;5106346;28;20052;-59